createdAt,value
2022-10-05T00:01:22.968Z,544.9
2022-10-05T00:03:01.693Z,546.1
2022-10-05T00:04:40.424Z,546.1
2022-10-05T00:06:51.345Z,545.8
2022-10-05T00:08:48.419Z,543.9
2022-10-05T00:12:04.102Z,541.8
2022-10-05T00:13:10.655Z,547.2
2022-10-05T00:14:17.234Z,540.8
2022-10-05T00:15:23.775Z,549.2
2022-10-05T00:16:30.319Z,546.7
2022-10-05T00:17:36.881Z,546.7
2022-10-05T00:18:43.456Z,544
2022-10-05T00:19:50.005Z,544.9
2022-10-05T00:20:56.539Z,545.6
2022-10-05T00:22:03.094Z,543.8
2022-10-05T00:23:09.643Z,548.1
2022-10-05T00:24:16.235Z,545.6
2022-10-05T00:25:22.761Z,552.4
2022-10-05T00:26:29.311Z,545.4
2022-10-05T00:27:35.876Z,545.4
2022-10-05T00:28:42.421Z,546.9
2022-10-05T00:29:48.990Z,541
2022-10-05T00:30:55.560Z,545.3
2022-10-05T00:32:02.096Z,553.8
2022-10-05T00:33:08.659Z,546.8
2022-10-05T00:34:15.204Z,548
2022-10-05T00:35:21.756Z,549.8
2022-10-05T00:36:28.312Z,543.4
2022-10-05T00:37:34.868Z,544.7
2022-10-05T00:38:41.429Z,544.6
2022-10-05T00:39:48.226Z,548
2022-10-05T00:40:55.018Z,545.9
2022-10-05T00:42:01.814Z,540.7
2022-10-05T00:43:08.596Z,550.7
2022-10-05T00:44:15.430Z,544.4
2022-10-05T00:45:22.183Z,550.1
2022-10-05T00:46:28.968Z,547.3
2022-10-05T00:47:35.767Z,551.2
2022-10-05T00:48:42.588Z,550
2022-10-05T00:49:49.343Z,550.8
2022-10-05T00:50:56.137Z,549.7
2022-10-05T00:52:02.941Z,546.7
2022-10-05T00:53:09.720Z,550.9
2022-10-05T00:56:27.916Z,546.9
2022-10-05T00:57:35.144Z,550
2022-10-05T00:58:42.417Z,553.1
2022-10-05T01:00:21.142Z,553.3
2022-10-05T01:01:59.868Z,548.6
2022-10-05T01:03:38.607Z,553.1
2022-10-05T01:05:17.340Z,551.8
2022-10-05T01:06:56.084Z,548.4
2022-10-05T01:08:34.835Z,548.1
2022-10-05T01:10:13.559Z,552.2
2022-10-05T01:11:52.301Z,551.2
2022-10-05T01:13:31.042Z,554.8
2022-10-05T01:14:38.306Z,551.5
2022-10-05T01:17:39.058Z,551.6
2022-10-05T01:20:54.689Z,550.2
2022-10-05T01:22:01.058Z,551.6
2022-10-05T01:23:07.493Z,553.9
2022-10-05T01:24:13.958Z,554.3
2022-10-05T01:25:20.372Z,552.9
2022-10-05T01:26:26.811Z,554.4
2022-10-05T01:27:33.238Z,551
2022-10-05T01:28:39.681Z,550.5
2022-10-05T01:29:46.120Z,554.5
2022-10-05T01:30:52.567Z,548.1
2022-10-05T01:31:58.992Z,552.6
2022-10-05T01:33:05.439Z,546.4
2022-10-05T01:34:11.885Z,550.4
2022-10-05T01:35:18.321Z,551.6
2022-10-05T01:36:24.754Z,556.2
2022-10-05T01:37:31.194Z,554.5
2022-10-05T01:39:44.093Z,547.3
2022-10-05T01:40:50.525Z,550.6
2022-10-05T01:41:56.947Z,550.3
2022-10-05T01:43:03.379Z,556.5
2022-10-05T01:44:09.826Z,551.6
2022-10-05T01:45:16.261Z,552.1
2022-10-05T01:46:22.703Z,553.6
2022-10-05T01:47:29.139Z,554
2022-10-05T01:48:35.743Z,554.4
2022-10-05T01:49:42.278Z,555
2022-10-05T01:50:48.839Z,549.4
2022-10-05T01:51:55.384Z,551.9
2022-10-05T01:53:01.948Z,552.9
2022-10-05T01:54:08.487Z,551.8
2022-10-05T01:55:15.050Z,554.7
2022-10-05T01:56:21.591Z,554.8
2022-10-05T01:57:28.146Z,551.8
2022-10-05T01:58:34.706Z,552.8
2022-10-05T01:59:41.247Z,555.8
2022-10-05T02:00:47.801Z,550.8
2022-10-05T02:01:54.361Z,554
2022-10-05T02:03:01.197Z,555.5
2022-10-05T02:04:07.943Z,552.7
2022-10-05T02:05:14.756Z,550.9
2022-10-05T02:06:21.608Z,553.5
2022-10-05T02:07:28.330Z,552.6
2022-10-05T02:08:35.114Z,556.8
2022-10-05T02:09:41.910Z,553.7
2022-10-05T02:10:48.706Z,555.9
2022-10-05T02:11:55.465Z,548.1
2022-10-05T02:13:02.261Z,551.6
2022-10-05T02:14:09.048Z,547.9
2022-10-05T02:15:15.842Z,555
2022-10-05T02:16:22.625Z,551.4
2022-10-05T02:19:03.092Z,550
2022-10-05T02:20:41.829Z,548.1
2022-10-05T02:22:20.554Z,552.7
2022-10-05T02:23:59.298Z,548.9
2022-10-05T02:25:06.560Z,550.2
2022-10-05T02:26:13.836Z,550.6
2022-10-05T02:27:52.561Z,549.2
2022-10-05T02:29:31.293Z,549
2022-10-05T02:31:10.049Z,549
2022-10-05T02:32:48.773Z,547.7
2022-10-05T02:34:27.506Z,546.3
2022-10-05T02:36:06.234Z,550.1
2022-10-05T02:37:45.056Z,544.4
2022-10-05T02:41:34.565Z,545.1
2022-10-05T02:42:41.238Z,548.6
2022-10-05T02:43:47.656Z,553.2
2022-10-05T02:44:54.111Z,547
2022-10-05T02:46:00.523Z,554.7
2022-10-05T02:47:06.961Z,552.9
2022-10-05T02:48:13.447Z,549.3
2022-10-05T02:49:19.832Z,548.5
2022-10-05T02:50:26.265Z,548.7
2022-10-05T02:51:32.698Z,552.6
2022-10-05T02:52:39.196Z,553.3
2022-10-05T02:53:45.619Z,554.2
2022-10-05T02:54:52.001Z,549.5
2022-10-05T02:55:58.428Z,552.9
2022-10-05T02:57:04.871Z,555.3
2022-10-05T02:58:11.304Z,552.4
2022-10-05T02:59:17.742Z,553.9
2022-10-05T03:00:24.175Z,551.6
2022-10-05T03:01:30.658Z,552.7
2022-10-05T03:02:37.040Z,548.4
2022-10-05T03:03:43.483Z,548.5
2022-10-05T03:04:49.904Z,548.5
2022-10-05T03:05:56.341Z,550.6
2022-10-05T03:07:02.786Z,546
2022-10-05T03:08:09.207Z,550.1
2022-10-05T03:09:15.646Z,551.6
2022-10-05T03:10:22.214Z,552.4
2022-10-05T03:11:28.769Z,550.4
2022-10-05T03:12:35.319Z,547.7
2022-10-05T03:13:41.868Z,548.7
2022-10-05T03:14:48.428Z,553
2022-10-05T03:15:54.979Z,548.4
2022-10-05T03:17:01.525Z,551.4
2022-10-05T03:18:08.088Z,551.9
2022-10-05T03:19:14.634Z,554.4
2022-10-05T03:20:21.184Z,549.7
2022-10-05T03:21:27.739Z,551.4
2022-10-05T03:22:34.291Z,553
2022-10-05T03:23:40.846Z,550.6
2022-10-05T03:25:30.160Z,550
2022-10-05T03:26:36.939Z,554.1
2022-10-05T03:27:43.727Z,551.1
2022-10-05T03:28:50.525Z,552.2
2022-10-05T03:29:57.308Z,555.5
2022-10-05T03:31:04.105Z,550.7
2022-10-05T03:32:10.895Z,553.5
2022-10-05T03:33:17.692Z,554.8
2022-10-05T03:34:24.487Z,553
2022-10-05T03:35:31.258Z,552.6
2022-10-05T03:36:38.095Z,549.8
2022-10-05T03:37:44.861Z,555
2022-10-05T03:38:51.638Z,553.9
2022-10-05T03:42:09.794Z,551.6
2022-10-05T03:43:45.259Z,557.7
2022-10-05T03:44:52.525Z,553.4
2022-10-05T03:46:31.252Z,554.5
2022-10-05T03:48:09.988Z,561.1
2022-10-05T03:49:48.722Z,556.4
2022-10-05T03:51:27.452Z,558.6
2022-10-05T03:53:06.191Z,555.3
2022-10-05T03:54:44.926Z,556.3
2022-10-05T03:56:23.668Z,562.1
2022-10-05T03:58:02.400Z,556.2
2022-10-05T03:59:41.126Z,557.9
2022-10-05T04:00:48.400Z,554.2
2022-10-05T04:03:49.140Z,556.5
2022-10-05T04:07:04.722Z,557.4
2022-10-05T04:08:11.165Z,558.1
2022-10-05T04:09:17.580Z,558.4
2022-10-05T04:10:24.025Z,561.6
2022-10-05T04:11:30.459Z,558.9
2022-10-05T04:12:36.883Z,559.7
2022-10-05T04:13:43.368Z,558.8
2022-10-05T04:14:49.760Z,561
2022-10-05T04:15:56.204Z,558.7
2022-10-05T04:17:02.634Z,562.5
2022-10-05T04:18:09.076Z,556.5
2022-10-05T04:19:15.513Z,560.3
2022-10-05T04:20:21.948Z,561.6
2022-10-05T04:21:28.387Z,558.9
2022-10-05T04:22:34.823Z,557
2022-10-05T04:23:41.283Z,558.1
2022-10-05T04:24:47.690Z,560.8
2022-10-05T04:25:54.147Z,556.4
2022-10-05T04:27:00.576Z,560.7
2022-10-05T04:28:06.999Z,562.3
2022-10-05T04:29:13.440Z,555.2
2022-10-05T04:30:19.874Z,561.2
2022-10-05T04:31:26.321Z,562.5
2022-10-05T04:32:32.759Z,561.7
2022-10-05T04:33:39.194Z,559.4
2022-10-05T04:34:45.765Z,561.7
2022-10-05T04:35:52.352Z,559.9
2022-10-05T04:36:58.872Z,559
2022-10-05T04:38:05.436Z,559.5
2022-10-05T04:39:11.986Z,560.8
2022-10-05T04:40:18.540Z,558.6
2022-10-05T04:41:25.102Z,557.9
2022-10-05T04:42:31.680Z,559.3
2022-10-05T04:43:38.221Z,556.7
2022-10-05T04:44:44.793Z,558.3
2022-10-05T04:45:51.332Z,557.9
2022-10-05T04:46:57.883Z,558.6
2022-10-05T04:48:04.449Z,560.9
2022-10-05T04:49:11.236Z,561.5
2022-10-05T04:50:18.042Z,556.7
2022-10-05T04:51:24.862Z,558.3
2022-10-05T04:52:31.648Z,563
2022-10-05T04:53:38.424Z,560.4
2022-10-05T04:54:45.239Z,559.1
2022-10-05T04:55:51.995Z,562.3
2022-10-05T04:56:58.838Z,561.3
2022-10-05T04:58:05.607Z,560.6
2022-10-05T04:59:12.389Z,556.7
2022-10-05T05:00:19.177Z,558.7
2022-10-05T05:01:25.989Z,563.2
2022-10-05T05:02:32.769Z,559
2022-10-05T05:05:11.391Z,562.3
2022-10-05T05:06:50.138Z,562.2
2022-10-05T05:08:28.858Z,564.2
2022-10-05T05:10:07.608Z,564
2022-10-05T05:11:14.869Z,562.8
2022-10-05T05:12:22.172Z,562.7
2022-10-05T05:14:00.878Z,564.6
2022-10-05T05:15:39.728Z,564.1
2022-10-05T05:17:18.350Z,565.5
2022-10-05T05:18:57.068Z,565.9
2022-10-05T05:20:35.799Z,564.9
2022-10-05T05:22:14.553Z,565.4
2022-10-05T05:23:53.256Z,564.8
2022-10-05T05:27:42.927Z,565.6
2022-10-05T05:28:49.506Z,571.4
2022-10-05T05:29:56.062Z,565
2022-10-05T05:31:02.624Z,567.4
2022-10-05T05:32:09.185Z,567.3
2022-10-05T05:33:15.730Z,568.4
2022-10-05T05:34:22.288Z,566.3
2022-10-05T05:35:28.838Z,567
2022-10-05T05:36:35.408Z,564.7
2022-10-05T05:37:41.946Z,566.8
2022-10-05T05:38:48.513Z,564.7
2022-10-05T05:39:55.051Z,568.6
2022-10-05T05:41:01.631Z,567.9
2022-10-05T05:42:08.158Z,569.9
2022-10-05T05:43:14.743Z,571.1
2022-10-05T05:44:21.298Z,570.8
2022-10-05T05:45:27.911Z,570.4
2022-10-05T05:46:34.383Z,566
2022-10-05T05:47:40.950Z,569.9
2022-10-05T05:48:47.488Z,571.5
2022-10-05T05:49:54.050Z,567.8
2022-10-05T05:51:00.603Z,568.1
2022-10-05T05:52:07.152Z,567.2
2022-10-05T05:53:13.730Z,566.4
2022-10-05T05:54:20.267Z,571.8
2022-10-05T05:55:26.823Z,570.5
2022-10-05T05:56:33.620Z,577.5
2022-10-05T05:57:40.436Z,572.6
2022-10-05T05:58:47.210Z,569.8
2022-10-05T05:59:54.019Z,573.3
2022-10-05T06:01:00.779Z,569.9
2022-10-05T06:02:07.668Z,568.1
2022-10-05T06:03:14.500Z,570
2022-10-05T06:04:21.241Z,568.8
2022-10-05T06:05:28.031Z,571.6
2022-10-05T06:06:34.845Z,569.7
2022-10-05T06:07:41.592Z,568.6
2022-10-05T06:08:48.359Z,572.7
2022-10-05T06:09:55.188Z,569.2
2022-10-05T06:12:34.984Z,569.8
2022-10-05T06:14:13.661Z,573.5
2022-10-05T06:15:52.414Z,573.9
2022-10-05T06:17:31.260Z,567.5
2022-10-05T06:18:38.426Z,574.4
2022-10-05T06:19:45.758Z,575.2
2022-10-05T06:21:24.421Z,573.3
2022-10-05T06:23:03.161Z,574.6
2022-10-05T06:24:41.897Z,574.4
2022-10-05T06:26:20.654Z,575.1
2022-10-05T06:27:59.494Z,574.8
2022-10-05T06:29:38.114Z,574.4
2022-10-05T06:31:16.851Z,575.3
2022-10-05T06:35:06.496Z,574.2
2022-10-05T06:36:12.920Z,575.5
2022-10-05T06:37:19.484Z,574.9
2022-10-05T06:38:25.802Z,576
2022-10-05T06:40:38.750Z,580.6
2022-10-05T06:41:45.108Z,574.3
2022-10-05T06:42:51.576Z,574.9
2022-10-05T06:43:57.984Z,578.4
2022-10-05T06:45:04.428Z,578.4
2022-10-05T06:46:10.854Z,576.7
2022-10-05T06:47:17.288Z,576.7
2022-10-05T06:48:23.819Z,581.1
2022-10-05T06:49:30.210Z,575.3
2022-10-05T06:50:36.629Z,576.7
2022-10-05T06:51:43.098Z,579.3
2022-10-05T06:52:49.495Z,578.7
2022-10-05T06:53:55.907Z,581.4
2022-10-05T06:55:02.440Z,579.8
2022-10-05T06:56:08.778Z,581.4
2022-10-05T06:57:15.284Z,580
2022-10-05T06:58:21.646Z,582.7
2022-10-05T06:59:28.073Z,578.1
2022-10-05T07:00:34.513Z,583.7
2022-10-05T07:01:41.029Z,581.7
2022-10-05T07:02:47.398Z,579.7
2022-10-05T07:03:53.946Z,580.7
2022-10-05T07:05:00.529Z,581.5
2022-10-05T07:06:07.043Z,576.7
2022-10-05T07:07:13.609Z,581.5
2022-10-05T07:08:20.153Z,584.4
2022-10-05T07:09:26.710Z,584.2
2022-10-05T07:10:33.290Z,580.3
2022-10-05T07:11:39.807Z,584.9
2022-10-05T07:12:46.365Z,582.1
2022-10-05T07:13:52.966Z,583
2022-10-05T07:14:59.504Z,583.5
2022-10-05T07:16:06.114Z,583.8
2022-10-05T07:17:12.586Z,587
2022-10-05T07:19:01.894Z,583.4
2022-10-05T07:20:08.669Z,585.6
2022-10-05T07:21:15.438Z,585.6
2022-10-05T07:22:22.379Z,585.1
2022-10-05T07:23:29.078Z,582.7
2022-10-05T07:24:35.829Z,585.3
2022-10-05T07:25:42.601Z,584.2
2022-10-05T07:26:49.385Z,586.4
2022-10-05T07:27:56.170Z,584.3
2022-10-05T07:29:02.967Z,584.7
2022-10-05T07:30:09.750Z,585.1
2022-10-05T07:31:16.562Z,583.6
2022-10-05T07:32:23.424Z,583.1
2022-10-05T07:35:41.483Z,584.9
2022-10-05T07:37:16.984Z,585.5
2022-10-05T07:38:24.237Z,589
2022-10-05T07:40:02.964Z,588
2022-10-05T07:41:41.673Z,588.3
2022-10-05T07:43:20.416Z,584.5
2022-10-05T07:44:59.206Z,585.1
2022-10-05T07:46:38.020Z,588.1
2022-10-05T07:48:16.646Z,588.2
2022-10-05T07:49:55.379Z,585.8
2022-10-05T07:51:34.097Z,584.1
2022-10-05T07:53:12.886Z,587.7
2022-10-05T07:54:20.121Z,588.3
2022-10-05T07:57:20.949Z,588.1
2022-10-05T08:00:36.418Z,588.8
2022-10-05T08:01:42.956Z,588.8
2022-10-05T08:02:49.314Z,587.5
2022-10-05T08:03:55.721Z,585.5
2022-10-05T08:05:02.149Z,587.8
2022-10-05T08:06:08.568Z,588.3
2022-10-05T08:07:15.140Z,587.3
2022-10-05T08:08:21.580Z,586.2
2022-10-05T08:09:28.003Z,586.2
2022-10-05T08:10:34.433Z,587.1
2022-10-05T08:11:40.853Z,589.4
2022-10-05T08:12:47.280Z,587
2022-10-05T08:13:53.647Z,587.4
2022-10-05T08:15:00.202Z,588.3
2022-10-05T08:16:06.520Z,585.9
2022-10-05T08:17:12.901Z,588.9
2022-10-05T08:18:19.412Z,586.5
2022-10-05T08:19:25.772Z,587.8
2022-10-05T08:20:32.205Z,590.6
2022-10-05T08:21:38.705Z,589.2
2022-10-05T08:22:45.092Z,589.5
2022-10-05T08:23:51.494Z,589.4
2022-10-05T08:24:57.962Z,587.9
2022-10-05T08:26:04.387Z,586.3
2022-10-05T08:27:10.806Z,591
2022-10-05T08:28:17.360Z,590.6
2022-10-05T08:29:23.903Z,588.9
2022-10-05T08:30:30.456Z,590.7
2022-10-05T08:31:37.048Z,595.1
2022-10-05T08:32:43.600Z,590.5
2022-10-05T08:33:50.195Z,590.8
2022-10-05T08:34:56.667Z,591.3
2022-10-05T08:36:03.212Z,587.2
2022-10-05T08:37:09.874Z,589.5
2022-10-05T08:38:16.357Z,592.1
2022-10-05T08:39:22.938Z,590.2
2022-10-05T08:40:29.418Z,588.7
2022-10-05T08:41:36.091Z,592.7
2022-10-05T08:42:42.777Z,590.6
2022-10-05T08:43:49.598Z,593.2
2022-10-05T08:44:56.340Z,591.8
2022-10-05T08:46:03.141Z,593.9
2022-10-05T08:47:09.924Z,591.9
2022-10-05T08:48:16.754Z,594.3
2022-10-05T08:49:23.499Z,593.9
2022-10-05T08:50:30.289Z,595
2022-10-05T08:51:37.199Z,593.9
2022-10-05T08:52:43.874Z,594
2022-10-05T08:53:50.682Z,594.9
2022-10-05T08:54:57.455Z,594.4
2022-10-05T08:56:04.251Z,594.5
2022-10-05T08:58:44.704Z,596.3
2022-10-05T09:00:23.441Z,593.1
2022-10-05T09:02:02.264Z,592.1
2022-10-05T09:03:40.941Z,593.5
2022-10-05T09:04:48.184Z,591
2022-10-05T09:05:55.524Z,593.4
2022-10-05T09:07:36.051Z,595.6
2022-10-05T09:09:12.916Z,596.4
2022-10-05T09:10:51.651Z,594.2
2022-10-05T09:12:30.479Z,597.8
2022-10-05T09:14:09.116Z,594.1
2022-10-05T09:15:47.858Z,596.3
2022-10-05T09:17:26.729Z,595.6
2022-10-05T09:21:16.219Z,597.9
2022-10-05T09:22:22.815Z,598
2022-10-05T09:23:29.343Z,600.7
2022-10-05T09:24:35.949Z,596.9
2022-10-05T09:25:42.486Z,598.5
2022-10-05T09:26:49.078Z,597.2
2022-10-05T09:27:55.630Z,596.7
2022-10-05T09:29:02.106Z,599.4
2022-10-05T09:30:08.699Z,598.9
2022-10-05T09:31:15.231Z,599.6
2022-10-05T09:32:21.760Z,600.8
2022-10-05T09:33:28.376Z,599.1
2022-10-05T09:34:34.881Z,598.6
2022-10-05T09:35:41.484Z,597.6
2022-10-05T09:36:47.963Z,599.9
2022-10-05T09:37:54.517Z,599.9
2022-10-05T09:39:01.065Z,598.9
2022-10-05T09:40:07.621Z,600.3
2022-10-05T09:41:14.170Z,601.4
2022-10-05T09:42:20.762Z,600.5
2022-10-05T09:43:27.351Z,598.5
2022-10-05T09:44:33.870Z,599.4
2022-10-05T09:45:40.452Z,601.2
2022-10-05T09:46:46.930Z,600.1
2022-10-05T09:47:53.489Z,601
2022-10-05T09:49:00.079Z,599
2022-10-05T09:50:06.932Z,600.2
2022-10-05T09:51:13.630Z,600.6
2022-10-05T09:52:20.404Z,599.2
2022-10-05T09:53:27.186Z,601.7
2022-10-05T09:54:33.962Z,602.4
2022-10-05T09:55:40.795Z,599.9
2022-10-05T09:56:47.541Z,600.2
2022-10-05T09:57:54.380Z,600.7
2022-10-05T09:59:01.109Z,604
2022-10-05T10:00:07.900Z,602
2022-10-05T10:01:14.762Z,600.5
2022-10-05T10:02:21.469Z,603.5
2022-10-05T10:03:28.302Z,599.5
2022-10-05T10:06:08.487Z,601.2
2022-10-05T10:07:47.210Z,604.1
2022-10-05T10:09:25.933Z,603.6
2022-10-05T10:11:04.674Z,603.4
2022-10-05T10:12:12.048Z,605.2
2022-10-05T10:13:19.211Z,604.4
2022-10-05T10:14:57.922Z,601
2022-10-05T10:16:36.654Z,602.2
2022-10-05T10:18:15.379Z,603.8
2022-10-05T10:19:54.114Z,602.9
2022-10-05T10:21:32.841Z,602.3
2022-10-05T10:23:11.685Z,603.7
2022-10-05T10:24:50.333Z,603.2
2022-10-05T10:28:39.967Z,602.3
2022-10-05T10:29:46.805Z,602.9
2022-10-05T10:30:53.701Z,603.8
2022-10-05T10:32:00.452Z,602.5
2022-10-05T10:33:07.228Z,604.2
2022-10-05T10:34:14.072Z,602.2
2022-10-05T10:35:20.770Z,603.9
2022-10-05T10:36:27.564Z,602.1
2022-10-05T10:37:34.426Z,601.4
2022-10-05T10:38:41.249Z,602.4
2022-10-05T10:39:47.991Z,602.2
2022-10-05T10:40:54.693Z,603.3
2022-10-05T10:42:01.511Z,602
2022-10-05T10:43:08.335Z,604
2022-10-05T10:44:15.159Z,603.2
2022-10-05T10:45:21.870Z,604.6
2022-10-05T10:46:28.605Z,604.1
2022-10-05T10:47:35.424Z,604.9
2022-10-05T10:48:42.181Z,605.1
2022-10-05T10:49:48.965Z,605.5
2022-10-05T10:50:55.786Z,604.7
2022-10-05T10:52:02.534Z,605.3
2022-10-05T10:53:09.361Z,603.3
2022-10-05T10:54:16.104Z,604.9
2022-10-05T10:55:22.888Z,605
2022-10-05T10:56:29.674Z,604.6
2022-10-05T10:58:42.041Z,604.7
2022-10-05T11:00:20.646Z,603.9
2022-10-05T11:01:32.972Z,605
2022-10-05T11:02:40.208Z,604.3
2022-10-05T11:04:18.969Z,604.4
2022-10-05T11:05:57.672Z,605.1
2022-10-05T11:07:36.402Z,604.2
2022-10-05T11:09:15.125Z,607.5
2022-10-05T11:10:53.848Z,606.2
2022-10-05T11:12:32.579Z,606.8
2022-10-05T11:14:11.310Z,605.4
2022-10-05T11:15:50.068Z,604.6
2022-10-05T11:17:28.760Z,604.4
2022-10-05T11:19:08.530Z,606.6
2022-10-05T11:22:24.091Z,605.1
2022-10-05T11:23:30.526Z,606.3
2022-10-05T11:24:36.967Z,604.6
2022-10-05T11:25:43.381Z,607.7
2022-10-05T11:26:49.914Z,605.3
2022-10-05T11:27:56.326Z,606.8
2022-10-05T11:29:02.787Z,605.6
2022-10-05T11:30:09.169Z,609.8
2022-10-05T11:31:15.537Z,608.1
2022-10-05T11:32:22.076Z,607
2022-10-05T11:33:28.502Z,606.7
2022-10-05T11:34:34.872Z,608.6
2022-10-05T11:35:41.388Z,606.6
2022-10-05T11:36:47.794Z,611.3
2022-10-05T11:37:54.117Z,606.6
2022-10-05T11:39:00.534Z,607.5
2022-10-05T11:40:06.958Z,610
2022-10-05T11:41:13.486Z,610
2022-10-05T11:42:19.947Z,610.4
2022-10-05T11:43:26.278Z,609.6
2022-10-05T11:44:32.774Z,609.4
2022-10-05T11:45:39.101Z,608.1
2022-10-05T11:46:45.580Z,611.6
2022-10-05T11:47:51.962Z,607.6
2022-10-05T11:48:58.412Z,608.3
2022-10-05T11:50:04.974Z,606
2022-10-05T11:51:11.550Z,609.1
2022-10-05T11:52:18.142Z,609.3
2022-10-05T11:53:24.600Z,608
2022-10-05T11:54:31.162Z,607.9
2022-10-05T11:55:37.702Z,610.2
2022-10-05T11:56:44.377Z,609
2022-10-05T11:57:50.789Z,608.5
2022-10-05T11:58:57.456Z,615.1
2022-10-05T12:00:03.871Z,616.2
2022-10-05T12:01:10.533Z,617.4
2022-10-05T12:02:16.989Z,616.7
2022-10-05T12:03:23.559Z,621.6
2022-10-05T12:05:12.822Z,620.6
2022-10-05T12:06:19.601Z,618.4
2022-10-05T12:07:26.454Z,619.1
2022-10-05T12:08:33.177Z,617.3
2022-10-05T12:09:40.070Z,620.8
2022-10-05T12:10:46.776Z,622.5
2022-10-05T12:11:53.545Z,621.8
2022-10-05T12:13:00.323Z,624
2022-10-05T12:14:07.117Z,620.7
2022-10-05T12:15:13.902Z,620.1
2022-10-05T12:16:20.686Z,619.4
2022-10-05T12:17:27.495Z,617.8
2022-10-05T12:18:34.270Z,620.1
2022-10-05T12:21:52.416Z,620.4
2022-10-05T12:23:31.147Z,619.2
2022-10-05T12:24:38.411Z,619
2022-10-05T12:25:45.677Z,616.6
2022-10-05T12:27:24.416Z,617.9
2022-10-05T12:29:03.164Z,618.8
2022-10-05T12:30:41.892Z,620.9
2022-10-05T12:32:20.607Z,619.9
2022-10-05T12:33:59.346Z,622.4
2022-10-05T12:35:38.082Z,619.9
2022-10-05T12:37:16.794Z,622.7
2022-10-05T12:38:55.528Z,623.1
2022-10-05T12:40:34.277Z,622
2022-10-05T12:42:13.995Z,623.3
2022-10-05T12:45:29.700Z,619.2
2022-10-05T12:46:36.223Z,623.8
2022-10-05T12:47:42.771Z,623.4
2022-10-05T12:48:49.379Z,626.6
2022-10-05T12:49:55.870Z,626.7
2022-10-05T12:51:02.428Z,623.1
2022-10-05T12:52:08.993Z,623.7
2022-10-05T12:53:15.527Z,625
2022-10-05T12:54:22.085Z,624.2
2022-10-05T12:55:28.636Z,627.5
2022-10-05T12:56:35.171Z,622.7
2022-10-05T12:57:41.732Z,625.5
2022-10-05T12:58:48.295Z,624.5
2022-10-05T12:59:54.839Z,625.6
2022-10-05T13:01:01.386Z,624.8
2022-10-05T13:02:07.938Z,623.7
2022-10-05T13:03:14.491Z,625.4
2022-10-05T13:04:21.058Z,626.6
2022-10-05T13:05:27.656Z,624.2
2022-10-05T13:06:34.142Z,626.1
2022-10-05T13:07:40.689Z,623.4
2022-10-05T13:08:47.249Z,620.5
2022-10-05T13:09:53.789Z,622.6
2022-10-05T13:11:00.338Z,617.5
2022-10-05T13:12:06.895Z,618.3
2022-10-05T13:13:13.726Z,617.7
2022-10-05T13:14:20.463Z,616.8
2022-10-05T13:15:27.261Z,615.2
2022-10-05T13:16:34.065Z,614.1
2022-10-05T13:17:40.825Z,610.5
2022-10-05T13:18:47.625Z,608.3
2022-10-05T13:19:54.405Z,610
2022-10-05T13:21:01.195Z,606.8
2022-10-05T13:22:07.975Z,608.9
2022-10-05T13:23:14.764Z,608
2022-10-05T13:24:21.549Z,606.5
2022-10-05T13:25:28.347Z,604.9
2022-10-05T13:26:35.128Z,605.5
2022-10-05T13:29:14.629Z,606.9
2022-10-05T13:30:53.365Z,603.3
2022-10-05T13:32:32.097Z,604.2
2022-10-05T13:34:10.827Z,604.5
2022-10-05T13:35:18.193Z,606.4
2022-10-05T13:36:25.356Z,603.7
2022-10-05T13:38:04.089Z,605.1
2022-10-05T13:39:42.826Z,606.5
2022-10-05T13:41:21.561Z,604.5
2022-10-05T13:43:00.297Z,604.1
2022-10-05T13:44:39.047Z,604.3
2022-10-05T13:46:17.771Z,602.3
2022-10-05T13:47:56.473Z,604
2022-10-05T13:51:46.120Z,605.2
2022-10-05T13:52:54.273Z,602.2
2022-10-05T13:56:09.941Z,601.2
2022-10-05T13:57:16.494Z,601.1
2022-10-05T13:58:23.052Z,601.8
2022-10-05T13:59:29.589Z,600.8
2022-10-05T14:00:36.143Z,603.1
2022-10-05T14:01:42.686Z,601.5
2022-10-05T14:02:49.228Z,602.8
2022-10-05T14:03:55.783Z,602.2
2022-10-05T14:05:02.328Z,600.1
2022-10-05T14:06:08.877Z,600.9
2022-10-05T14:07:15.420Z,599.9
2022-10-05T14:08:21.981Z,600.4
2022-10-05T14:09:28.524Z,601.4
2022-10-05T14:10:35.111Z,599.2
2022-10-05T14:11:41.713Z,598.5
2022-10-05T14:12:48.165Z,600
2022-10-05T14:13:54.709Z,599.8
2022-10-05T14:15:01.269Z,598.2
2022-10-05T14:16:07.811Z,599.8
2022-10-05T14:17:14.390Z,600.1
2022-10-05T14:18:20.904Z,601.9
2022-10-05T14:19:27.474Z,601.5
2022-10-05T14:20:33.996Z,599.3
2022-10-05T14:21:40.617Z,600.8
2022-10-05T14:22:47.097Z,601.1
2022-10-05T14:23:53.894Z,600.7
2022-10-05T14:25:00.673Z,599.4
2022-10-05T14:26:07.453Z,600
2022-10-05T14:27:14.239Z,599.3
2022-10-05T14:28:21.019Z,599.7
2022-10-05T14:29:27.805Z,600.8
2022-10-05T14:30:34.615Z,599.7
2022-10-05T14:31:41.382Z,599.3
2022-10-05T14:32:48.164Z,597.9
2022-10-05T14:33:54.944Z,600
2022-10-05T14:35:01.727Z,599.4
2022-10-05T14:36:08.499Z,596.7
2022-10-05T14:37:15.288Z,599.8
2022-10-05T14:40:33.496Z,598.8
2022-10-05T14:42:08.974Z,597.8
2022-10-05T14:43:16.224Z,598.5
2022-10-05T14:44:54.953Z,597.1
2022-10-05T14:46:33.686Z,595.9
2022-10-05T14:48:12.428Z,597.5
2022-10-05T14:49:51.156Z,597
2022-10-05T14:51:29.887Z,595.7
2022-10-05T14:53:08.622Z,597.5
2022-10-05T14:54:47.359Z,597.2
2022-10-05T14:56:26.094Z,596.6
2022-10-05T14:58:04.826Z,596.8
2022-10-05T14:59:12.114Z,595.8
2022-10-05T15:02:12.879Z,598.7
2022-10-05T15:05:28.597Z,598
2022-10-05T15:06:35.114Z,596
2022-10-05T15:07:41.668Z,596.2
2022-10-05T15:08:48.211Z,596.7
2022-10-05T15:09:54.766Z,595.2
2022-10-05T15:11:01.314Z,596.4
2022-10-05T15:12:07.876Z,598.1
2022-10-05T15:13:14.418Z,597.6
2022-10-05T15:14:20.970Z,594.7
2022-10-05T15:15:27.513Z,596.2
2022-10-05T15:16:34.085Z,595.3
2022-10-05T15:17:40.615Z,594.9
2022-10-05T15:18:47.167Z,594.7
2022-10-05T15:19:53.720Z,598.3
2022-10-05T15:21:00.278Z,595.8
2022-10-05T15:22:06.821Z,592.4
2022-10-05T15:23:13.373Z,593.1
2022-10-05T15:24:19.932Z,595.4
2022-10-05T15:25:26.487Z,594.9
2022-10-05T15:26:33.041Z,592.9
2022-10-05T15:27:39.602Z,594.9
2022-10-05T15:28:46.127Z,594
2022-10-05T15:29:52.698Z,592.3
2022-10-05T15:30:59.236Z,594.7
2022-10-05T15:32:05.793Z,595.7
2022-10-05T15:33:12.615Z,596.4
2022-10-05T15:34:19.376Z,595.1
2022-10-05T15:35:26.153Z,596.4
2022-10-05T15:36:32.940Z,594.7
2022-10-05T15:37:39.738Z,592.3
2022-10-05T15:38:46.518Z,595
2022-10-05T15:39:53.382Z,594.9
2022-10-05T15:41:00.094Z,596.9
2022-10-05T15:42:06.905Z,594.7
2022-10-05T15:43:13.672Z,595.1
2022-10-05T15:44:20.468Z,595.3
2022-10-05T15:45:27.264Z,594.1
2022-10-05T15:46:34.039Z,595.8
2022-10-05T15:47:41.349Z,595.5
2022-10-05T15:49:20.065Z,594.1
2022-10-05T15:50:58.797Z,592
2022-10-05T15:52:37.546Z,593.3
2022-10-05T15:54:16.267Z,593.6
2022-10-05T15:55:55.010Z,594.8
2022-10-05T15:57:33.730Z,593.1
2022-10-05T15:59:12.460Z,589.6
2022-10-05T16:00:51.309Z,593.5
2022-10-05T16:02:29.926Z,592.8
2022-10-05T16:04:08.659Z,591.1
2022-10-05T16:05:47.398Z,592.8
2022-10-05T16:07:26.162Z,589.8
2022-10-05T16:11:34.134Z,592.1
2022-10-05T16:12:42.397Z,590.8
2022-10-05T16:14:49.719Z,589.2
2022-10-05T16:15:56.176Z,590
2022-10-05T16:17:02.537Z,591.7
2022-10-05T16:18:08.965Z,588.8
2022-10-05T16:19:15.402Z,591.6
2022-10-05T16:20:21.832Z,590.3
2022-10-05T16:21:28.270Z,592.3
2022-10-05T16:22:34.754Z,589.3
2022-10-05T16:23:41.188Z,595
2022-10-05T16:24:47.610Z,594.5
2022-10-05T16:25:54.013Z,592.7
2022-10-05T16:27:00.445Z,591.1
2022-10-05T16:28:06.874Z,592.1
2022-10-05T16:29:13.304Z,590.6
2022-10-05T16:30:19.736Z,591.8
2022-10-05T16:31:26.165Z,592.1
2022-10-05T16:32:32.602Z,594.4
2022-10-05T16:33:39.040Z,593.1
2022-10-05T16:34:45.481Z,592.2
2022-10-05T16:35:51.910Z,590.6
2022-10-05T16:36:58.358Z,592
2022-10-05T16:38:04.789Z,591.3
2022-10-05T16:39:11.217Z,591.4
2022-10-05T16:40:17.643Z,592.2
2022-10-05T16:41:24.081Z,590.3
2022-10-05T16:42:30.652Z,590
2022-10-05T16:43:37.216Z,589.9
2022-10-05T16:44:43.751Z,589.5
2022-10-05T16:45:50.319Z,590.9
2022-10-05T16:46:56.850Z,593.1
2022-10-05T16:48:03.424Z,590.3
2022-10-05T16:49:09.953Z,589.6